createdAt,value
2023-04-14T00:01:17.020Z,17.02
2023-04-14T00:03:46.088Z,18.73
2023-04-14T00:06:14.884Z,17.98
2023-04-14T00:08:43.491Z,22.02
2023-04-14T00:11:12.175Z,24.25
2023-04-14T00:13:40.793Z,21.95
2023-04-14T00:16:12.200Z,17.08
2023-04-14T00:18:40.902Z,17.75
2023-04-14T00:21:09.540Z,17.65
2023-04-14T00:23:38.189Z,27.25
2023-04-14T00:26:09.658Z,19.52
2023-04-14T00:28:38.278Z,19.30
2023-04-14T00:31:08.257Z,18.40
2023-04-14T00:33:38.287Z,20.00
2023-04-14T00:36:07.230Z,19.70
2023-04-14T00:38:35.887Z,24.60
2023-04-14T00:41:04.537Z,20.05
2023-04-14T00:43:33.158Z,17.88
2023-04-14T00:46:01.849Z,17.33
2023-04-14T00:48:31.088Z,22.65
2023-04-14T00:51:01.985Z,19.15
2023-04-14T00:53:30.642Z,20.13
2023-04-14T00:56:00.320Z,17.10
2023-04-14T00:58:29.477Z,15.93
2023-04-14T01:00:58.108Z,21.58
2023-04-14T01:03:27.797Z,14.45
2023-04-14T01:08:26.467Z,16.20
2023-04-14T01:10:58.710Z,15.38
2023-04-14T01:13:33.611Z,14.07
2023-04-14T01:16:03.378Z,16.63
2023-04-14T01:18:36.966Z,20.40
2023-04-14T01:21:07.845Z,11.32
2023-04-14T01:23:41.160Z,13.00
2023-04-14T01:26:23.735Z,12.27
2023-04-14T01:29:16.612Z,13.10
2023-04-14T01:31:48.739Z,10.93
2023-04-14T01:34:21.383Z,12.93
2023-04-14T01:36:53.569Z,10.48
2023-04-14T01:39:24.579Z,11.60
2023-04-14T01:41:56.929Z,12.68
2023-04-14T01:44:27.018Z,10.85
2023-04-14T01:46:58.511Z,9.02
2023-04-14T01:49:28.422Z,10.05
2023-04-14T01:51:57.658Z,11.57
2023-04-14T01:54:26.571Z,12.25
2023-04-14T01:56:56.998Z,11.83
2023-04-14T01:59:26.468Z,11.30
2023-04-14T02:01:55.261Z,12.60
2023-04-14T02:07:21.793Z,15.50
2023-04-14T02:09:51.507Z,11.98
2023-04-14T02:12:21.433Z,13.68
2023-04-14T02:14:50.640Z,13.30
2023-04-14T02:17:20.777Z,12.23
2023-04-14T02:19:51.438Z,13.45
2023-04-14T02:22:20.061Z,15.25
2023-04-14T02:24:48.777Z,12.65
2023-04-14T02:27:19.306Z,11.90
2023-04-14T02:29:50.520Z,9.68
2023-04-14T02:32:20.973Z,9.68
2023-04-14T02:34:54.138Z,9.10
2023-04-14T02:37:24.557Z,15.90
2023-04-14T02:39:57.846Z,13.18
2023-04-14T02:42:28.546Z,7.50
2023-04-14T02:45:00.296Z,7.75
2023-04-14T02:47:34.019Z,8.88
2023-04-14T02:50:05.745Z,9.93
2023-04-14T02:52:35.764Z,6.45
2023-04-14T02:55:06.175Z,9.65
2023-04-14T02:57:35.097Z,7.90
2023-04-14T03:00:03.959Z,12.27
2023-04-14T03:02:32.886Z,8.10
2023-04-14T03:05:01.998Z,10.03
2023-04-14T03:07:33.133Z,9.40
2023-04-14T03:10:02.425Z,7.82
2023-04-14T03:12:31.145Z,7.65
2023-04-14T03:15:00.633Z,9.38
2023-04-14T03:17:29.350Z,11.98
2023-04-14T03:19:58.304Z,8.40
2023-04-14T03:22:28.415Z,9.60
2023-04-14T03:24:59.062Z,10.68
2023-04-14T03:27:30.177Z,13.07
2023-04-14T03:30:01.631Z,9.98
2023-04-14T03:32:39.519Z,9.73
2023-04-14T03:35:08.525Z,12.38
2023-04-14T03:37:39.826Z,9.07
2023-04-14T03:40:11.155Z,12.25
2023-04-14T03:42:40.783Z,14.02
2023-04-14T03:45:10.033Z,15.57
2023-04-14T03:47:38.793Z,7.47
2023-04-14T03:50:09.260Z,6.93
2023-04-14T03:52:39.936Z,5.10
2023-04-14T03:55:12.441Z,7.45
2023-04-14T03:57:41.901Z,6.72
2023-04-14T04:00:11.510Z,7.97
2023-04-14T04:02:41.021Z,8.63
2023-04-14T04:05:10.858Z,8.15
2023-04-14T04:07:40.513Z,6.00
2023-04-14T04:10:11.357Z,8.18
2023-04-14T04:12:40.909Z,7.72
2023-04-14T04:15:10.193Z,9.07
2023-04-14T04:17:39.137Z,7.38
2023-04-14T04:20:08.828Z,12.47
2023-04-14T04:22:39.156Z,10.38
2023-04-14T04:25:08.749Z,19.40
2023-04-14T04:27:39.041Z,23.35
2023-04-14T04:30:09.133Z,14.23
2023-04-14T04:32:37.967Z,16.98
2023-04-14T04:35:07.407Z,10.70
2023-04-14T04:37:36.569Z,10.77
2023-04-14T04:40:05.352Z,12.18
2023-04-14T04:42:33.932Z,8.38
2023-04-14T04:45:03.921Z,10.35
2023-04-14T04:47:32.551Z,8.38
2023-04-14T04:50:01.167Z,6.70
2023-04-14T04:52:29.786Z,10.85
2023-04-14T04:54:58.748Z,6.18
2023-04-14T04:57:27.414Z,11.17
2023-04-14T04:59:56.263Z,9.27
2023-04-14T05:02:26.621Z,5.32
2023-04-14T05:04:55.804Z,5.82
2023-04-14T05:07:24.467Z,7.18
2023-04-14T05:09:53.291Z,10.15
2023-04-14T05:12:22.593Z,12.57
2023-04-14T05:14:51.544Z,10.23
2023-04-14T05:17:20.208Z,11.68
2023-04-14T05:19:50.588Z,11.85
2023-04-14T05:22:19.593Z,8.32
2023-04-14T05:24:50.408Z,11.93
2023-04-14T05:27:19.059Z,16.48
2023-04-14T05:29:48.126Z,12.98
2023-04-14T05:32:16.897Z,13.00
2023-04-14T05:34:45.803Z,16.50
2023-04-14T05:37:17.009Z,12.32
2023-04-14T05:39:46.084Z,17.40
2023-04-14T05:42:14.773Z,17.63
2023-04-14T05:44:43.639Z,16.17
2023-04-14T05:47:13.004Z,14.90
2023-04-14T05:49:41.740Z,13.50
2023-04-14T05:52:10.498Z,16.30
2023-04-14T05:54:42.564Z,14.77
2023-04-14T05:57:12.044Z,15.43
2023-04-14T05:59:40.674Z,15.95
2023-04-14T06:02:09.476Z,15.15
2023-04-14T06:04:38.751Z,22.55
2023-04-14T06:07:07.851Z,14.35
2023-04-14T06:09:36.756Z,16.40
2023-04-14T06:12:07.093Z,16.58
2023-04-14T06:14:35.862Z,18.38
2023-04-14T06:17:04.866Z,15.32
2023-04-14T06:22:29.340Z,15.85
2023-04-14T06:24:59.030Z,16.60
2023-04-14T06:27:29.306Z,14.18
2023-04-14T06:30:01.074Z,13.10
2023-04-14T06:32:30.085Z,13.13
2023-04-14T06:34:59.177Z,12.30
2023-04-14T06:37:27.904Z,13.10
2023-04-14T06:39:57.002Z,16.23
2023-04-14T06:42:26.239Z,12.73
2023-04-14T06:44:56.933Z,22.40
2023-04-14T06:47:25.661Z,13.10
2023-04-14T06:49:54.612Z,14.65
2023-04-14T06:52:23.752Z,14.82
2023-04-14T06:54:52.567Z,19.65
2023-04-14T06:57:21.480Z,18.25
2023-04-14T06:59:51.187Z,17.80
2023-04-14T07:02:21.370Z,20.02
2023-04-14T07:04:50.618Z,21.38
2023-04-14T07:07:19.725Z,19.70
2023-04-14T07:09:48.694Z,24.23
2023-04-14T07:12:18.320Z,12.93
2023-04-14T07:14:51.866Z,17.20
2023-04-14T07:17:22.271Z,20.60
2023-04-14T07:19:50.922Z,17.15
2023-04-14T07:22:19.917Z,18.75
2023-04-14T07:24:49.039Z,22.63
2023-04-14T07:27:17.926Z,22.30
2023-04-14T07:29:46.591Z,50.30
2023-04-14T07:32:16.176Z,29.52
2023-04-14T07:34:46.821Z,22.80
2023-04-14T07:37:16.410Z,22.55
2023-04-14T07:39:45.023Z,15.23
2023-04-14T07:42:14.211Z,16.80
2023-04-14T07:44:43.468Z,12.73
2023-04-14T07:47:12.061Z,13.02
2023-04-14T07:49:40.971Z,14.77
2023-04-14T07:52:12.625Z,14.43
2023-04-14T07:54:41.304Z,11.13
2023-04-14T07:57:11.151Z,11.25
2023-04-14T08:02:12.054Z,14.45
2023-04-14T08:04:41.255Z,11.43
2023-04-14T08:07:11.482Z,11.40
2023-04-14T08:09:40.430Z,13.50
2023-04-14T08:12:09.218Z,17.30
2023-04-14T08:14:37.988Z,14.55
2023-04-14T08:17:06.955Z,13.35
2023-04-14T08:19:35.935Z,19.53
2023-04-14T08:22:05.085Z,16.27
2023-04-14T08:24:37.587Z,23.55
2023-04-14T08:27:06.457Z,20.75
2023-04-14T08:29:35.417Z,20.80
2023-04-14T08:32:04.732Z,18.67
2023-04-14T08:34:33.672Z,14.65
2023-04-14T08:37:02.322Z,14.38
2023-04-14T08:39:31.214Z,9.80
2023-04-14T08:42:01.219Z,9.50
2023-04-14T08:44:31.343Z,11.88
2023-04-14T08:47:00.360Z,11.52
2023-04-14T08:49:33.666Z,11.43
2023-04-14T08:52:04.053Z,10.15
2023-04-14T08:54:33.291Z,10.70
2023-04-14T08:57:03.802Z,11.93
2023-04-14T08:59:33.005Z,10.38
2023-04-14T09:02:02.298Z,17.92
2023-04-14T09:04:31.406Z,96.55
2023-04-14T09:07:00.222Z,29.97
2023-04-14T09:09:29.239Z,29.63
2023-04-14T09:11:58.370Z,12.40
2023-04-14T09:14:29.617Z,9.07
2023-04-14T09:16:58.820Z,15.23
2023-04-14T09:19:27.976Z,16.73
2023-04-14T09:21:56.957Z,17.33
2023-04-14T09:24:32.471Z,26.35
2023-04-14T09:27:04.136Z,13.45
2023-04-14T09:29:34.605Z,20.95
2023-04-14T09:32:03.770Z,37.85
2023-04-14T09:34:32.808Z,37.83
2023-04-14T09:37:03.658Z,38.97
2023-04-14T09:39:32.515Z,16.33
2023-04-14T09:42:01.691Z,10.85
2023-04-14T09:44:30.485Z,9.25
2023-04-14T09:47:01.674Z,7.00
2023-04-14T09:49:31.296Z,9.35
2023-04-14T09:52:05.238Z,6.50
2023-04-14T09:54:34.428Z,6.35
2023-04-14T09:57:04.232Z,11.63
2023-04-14T09:59:34.446Z,7.43
2023-04-14T10:02:07.876Z,8.00
2023-04-14T10:04:37.015Z,9.13
2023-04-14T10:07:07.841Z,6.27
2023-04-14T10:09:37.819Z,7.10
2023-04-14T10:12:10.602Z,5.85
2023-04-14T10:14:39.964Z,6.22
2023-04-14T10:17:10.026Z,24.55
2023-04-14T10:19:40.237Z,9.27
2023-04-14T10:22:09.224Z,5.78
2023-04-14T10:24:38.316Z,8.57
2023-04-14T10:27:07.437Z,6.10
2023-04-14T10:29:36.230Z,5.55
2023-04-14T10:32:06.330Z,11.68
2023-04-14T10:34:37.574Z,9.68
2023-04-14T10:37:15.851Z,11.02
2023-04-14T10:39:45.037Z,5.93
2023-04-14T10:42:13.809Z,6.30
2023-04-14T10:44:42.453Z,7.43
2023-04-14T10:47:11.263Z,7.35
2023-04-14T10:49:42.141Z,7.45
2023-04-14T10:52:25.781Z,4.70
2023-04-14T10:54:54.767Z,4.85
2023-04-14T10:57:24.029Z,4.70
2023-04-14T10:59:56.938Z,4.38
2023-04-14T11:02:28.009Z,4.88
2023-04-14T11:05:02.428Z,4.28
2023-04-14T11:07:31.811Z,4.82
2023-04-14T11:10:05.029Z,7.15
2023-04-14T11:12:33.751Z,8.63
2023-04-14T11:15:05.037Z,6.60
2023-04-14T11:17:34.041Z,5.28
2023-04-14T11:20:15.780Z,4.88
2023-04-14T11:22:45.961Z,4.80
2023-04-14T11:25:15.639Z,6.25
2023-04-14T11:27:44.498Z,5.28
2023-04-14T11:30:15.494Z,3.85
2023-04-14T11:32:48.950Z,2.58
2023-04-14T11:35:19.432Z,3.38
2023-04-14T11:37:48.497Z,3.42
2023-04-14T11:40:17.498Z,7.10
2023-04-14T11:42:46.818Z,5.45
2023-04-14T11:45:16.583Z,7.00
2023-04-14T11:48:01.288Z,5.85
2023-04-14T11:50:32.613Z,6.20
2023-04-14T11:53:02.942Z,7.38
2023-04-14T11:55:32.081Z,6.32
2023-04-14T11:58:01.119Z,7.07
2023-04-14T12:00:30.170Z,7.00
2023-04-14T12:02:59.533Z,6.30
2023-04-14T12:05:31.243Z,7.18
2023-04-14T12:08:02.513Z,5.00
2023-04-14T12:10:32.144Z,5.85
2023-04-14T12:13:01.721Z,4.93
2023-04-14T12:15:31.421Z,4.70
2023-04-14T12:18:00.350Z,4.80
2023-04-14T12:20:30.297Z,6.53
2023-04-14T12:25:32.869Z,6.78
2023-04-14T12:28:06.409Z,5.70
2023-04-14T12:30:35.940Z,5.47
2023-04-14T12:33:08.557Z,11.35
2023-04-14T12:35:37.827Z,7.55
2023-04-14T12:38:12.492Z,7.68
2023-04-14T12:40:45.898Z,7.53
2023-04-14T12:43:14.672Z,8.45
2023-04-14T12:45:43.867Z,7.82
2023-04-14T12:48:14.050Z,8.98
2023-04-14T12:50:42.722Z,6.60
2023-04-14T12:53:27.592Z,7.20
2023-04-14T12:56:07.580Z,7.15
2023-04-14T12:58:36.726Z,9.80
2023-04-14T13:01:06.929Z,9.70
2023-04-14T13:03:42.733Z,10.07
2023-04-14T13:06:12.979Z,11.75
2023-04-14T13:08:44.879Z,11.23
2023-04-14T13:11:15.497Z,11.57
2023-04-14T13:13:45.570Z,11.02
2023-04-14T13:16:17.688Z,11.80
2023-04-14T13:18:48.567Z,11.20
2023-04-14T13:21:17.992Z,9.18
2023-04-14T13:23:46.700Z,7.32
2023-04-14T13:26:16.805Z,7.88
2023-04-14T13:28:46.011Z,5.75
2023-04-14T13:31:18.551Z,6.35
2023-04-14T13:33:47.475Z,8.88
2023-04-14T13:36:16.214Z,10.15
2023-04-14T13:38:45.088Z,8.95
2023-04-14T13:41:15.367Z,7.25
2023-04-14T13:43:45.763Z,9.50
2023-04-14T13:46:16.161Z,8.18
2023-04-14T13:48:46.445Z,11.02
2023-04-14T13:51:15.542Z,9.88
2023-04-14T13:53:44.492Z,7.38
2023-04-14T13:56:13.340Z,7.55
2023-04-14T13:58:42.161Z,10.15
2023-04-14T14:01:13.491Z,10.20
2023-04-14T14:03:42.582Z,5.45
2023-04-14T14:06:11.818Z,8.13
2023-04-14T14:08:42.246Z,7.83
2023-04-14T14:11:11.586Z,6.40
2023-04-14T14:13:41.177Z,5.68
2023-04-14T14:16:11.117Z,6.75
2023-04-14T14:18:41.902Z,5.13
2023-04-14T14:21:11.159Z,3.75
2023-04-14T14:23:40.253Z,3.47
2023-04-14T14:26:13.959Z,4.03
2023-04-14T14:28:42.764Z,3.85
2023-04-14T14:31:11.621Z,5.15
2023-04-14T14:33:41.781Z,2.30
2023-04-14T14:36:10.622Z,5.20
2023-04-14T14:38:39.275Z,6.38
2023-04-14T14:41:07.938Z,4.70
2023-04-14T14:43:37.500Z,3.58
2023-04-14T14:46:06.409Z,3.35
2023-04-14T14:48:35.536Z,5.20
2023-04-14T14:51:05.839Z,4.10
2023-04-14T14:53:34.575Z,5.82
2023-04-14T14:56:03.678Z,4.30
2023-04-14T14:58:33.298Z,5.43
2023-04-14T15:01:01.973Z,3.58
2023-04-14T15:03:31.147Z,21.23
2023-04-14T15:05:59.900Z,8.77
2023-04-14T15:08:29.977Z,88.88
2023-04-14T15:10:59.048Z,136.73
2023-04-14T15:13:28.306Z,126.67
2023-04-14T15:15:57.054Z,223.90
2023-04-14T15:18:25.762Z,65.68
2023-04-14T15:20:55.387Z,184.93
2023-04-14T15:23:24.067Z,44.58
2023-04-14T15:25:54.440Z,53.15
2023-04-14T15:28:23.865Z,59.63
2023-04-14T15:30:52.597Z,23.58
2023-04-14T15:33:21.468Z,11.80
2023-04-14T15:35:50.601Z,37.10
2023-04-14T15:38:19.768Z,35.90
2023-04-14T15:40:48.647Z,10.20
2023-04-14T15:43:18.650Z,31.45
2023-04-14T15:45:47.663Z,12.77
2023-04-14T15:48:16.742Z,8.10
2023-04-14T15:50:45.356Z,17.40
2023-04-14T15:53:14.362Z,10.32
2023-04-14T15:55:44.355Z,18.27
2023-04-14T15:58:13.360Z,20.63
2023-04-14T16:00:43.759Z,24.03
2023-04-14T16:03:15.101Z,9.82
2023-04-14T16:05:43.892Z,11.93
2023-04-14T16:08:13.132Z,9.77
2023-04-14T16:10:42.565Z,9.85
2023-04-14T16:13:12.164Z,12.88
2023-04-14T16:15:42.053Z,11.98
2023-04-14T16:20:41.612Z,12.45
2023-04-14T16:23:10.336Z,9.25
2023-04-14T16:25:39.326Z,10.10
2023-04-14T16:28:08.422Z,12.30
2023-04-14T16:30:37.784Z,12.37
2023-04-14T16:35:36.721Z,12.30
2023-04-14T16:38:08.765Z,10.50
2023-04-14T16:40:37.902Z,10.80
2023-04-14T16:43:07.389Z,10.50
2023-04-14T16:45:36.462Z,10.75
2023-04-14T16:48:05.667Z,9.33
2023-04-14T16:50:35.605Z,8.55
2023-04-14T16:55:35.241Z,9.80
2023-04-14T16:58:03.882Z,12.43
2023-04-14T17:00:32.563Z,11.80
2023-04-14T17:03:02.177Z,10.75
2023-04-14T17:05:31.555Z,11.20
2023-04-14T17:08:00.872Z,14.13
2023-04-14T17:10:29.763Z,13.30
2023-04-14T17:12:59.787Z,13.68
2023-04-14T17:15:28.486Z,9.25
2023-04-14T17:17:57.285Z,12.93
2023-04-14T17:20:26.535Z,12.35
2023-04-14T17:22:55.221Z,13.07
2023-04-14T17:25:24.944Z,10.38
2023-04-14T17:27:54.047Z,9.52
2023-04-14T17:30:24.985Z,9.63
2023-04-14T17:32:53.890Z,9.45
2023-04-14T17:35:22.874Z,10.57
2023-04-14T17:37:51.499Z,9.60
2023-04-14T17:40:20.584Z,8.90
2023-04-14T17:42:49.258Z,8.23
2023-04-14T17:45:23.049Z,7.85
2023-04-14T17:47:54.146Z,8.07
2023-04-14T17:50:23.372Z,7.32
2023-04-14T17:52:52.580Z,7.80
2023-04-14T17:55:22.651Z,7.32
2023-04-14T17:57:51.525Z,8.23
2023-04-14T18:00:20.552Z,6.32
2023-04-14T18:02:49.794Z,5.70
2023-04-14T18:08:12.722Z,4.28
2023-04-14T18:10:41.436Z,5.90
2023-04-14T18:13:11.492Z,5.43
2023-04-14T18:15:42.567Z,7.28
2023-04-14T18:18:11.739Z,5.20
2023-04-14T18:20:46.879Z,5.93
2023-04-14T18:23:16.613Z,6.93
2023-04-14T18:28:17.014Z,6.32
2023-04-14T18:30:45.802Z,6.95
2023-04-14T18:33:14.409Z,8.18
2023-04-14T18:35:44.816Z,7.78
2023-04-14T18:38:14.129Z,8.75
2023-04-14T18:40:43.143Z,9.52
2023-04-14T18:43:12.176Z,7.03
2023-04-14T18:45:41.122Z,9.27
2023-04-14T18:48:09.812Z,7.30
2023-04-14T18:50:38.557Z,7.40
2023-04-14T18:53:08.778Z,6.10
2023-04-14T18:55:44.886Z,5.38
2023-04-14T18:58:15.086Z,7.22
2023-04-14T19:00:45.887Z,5.97
2023-04-14T19:03:15.264Z,5.43
2023-04-14T19:05:44.216Z,5.75
2023-04-14T19:08:14.226Z,6.30
2023-04-14T19:10:43.278Z,6.60
2023-04-14T19:13:12.115Z,7.13
2023-04-14T19:15:41.787Z,7.00
2023-04-14T19:18:11.766Z,7.93
2023-04-14T19:20:40.910Z,11.75
2023-04-14T19:23:10.060Z,10.63
2023-04-14T19:25:41.744Z,11.70
2023-04-14T19:28:16.686Z,8.35
2023-04-14T19:30:45.902Z,10.73
2023-04-14T19:33:15.518Z,8.43
2023-04-14T19:35:45.222Z,8.05
2023-04-14T19:38:14.603Z,7.35
2023-04-14T19:40:49.554Z,9.02
2023-04-14T19:43:18.618Z,8.80
2023-04-14T19:45:53.761Z,10.87
2023-04-14T19:48:24.292Z,9.48
2023-04-14T19:50:54.955Z,9.20
2023-04-14T19:53:24.566Z,10.48
2023-04-14T19:55:55.724Z,6.72
2023-04-14T19:58:26.147Z,7.47
2023-04-14T20:00:57.389Z,6.32
2023-04-14T20:03:27.039Z,7.65
2023-04-14T20:05:56.651Z,5.95
2023-04-14T20:08:26.431Z,5.50
2023-04-14T20:13:27.592Z,5.88
2023-04-14T20:15:56.469Z,5.45
2023-04-14T20:18:26.264Z,8.15
2023-04-14T20:20:55.694Z,4.57
2023-04-14T20:23:24.728Z,5.63
2023-04-14T20:25:56.025Z,3.83
2023-04-14T20:28:26.929Z,3.95
2023-04-14T20:30:56.270Z,4.95
2023-04-14T20:33:25.361Z,5.75
2023-04-14T20:35:54.796Z,4.40
2023-04-14T20:38:23.805Z,3.50
2023-04-14T20:40:52.737Z,5.80
2023-04-14T20:43:21.784Z,4.93
2023-04-14T20:45:53.112Z,4.47
2023-04-14T20:48:21.871Z,6.65
2023-04-14T20:50:50.708Z,5.78
2023-04-14T20:53:22.049Z,6.47
2023-04-14T20:55:51.156Z,6.75
2023-04-14T20:58:20.112Z,7.50
2023-04-14T21:00:49.102Z,6.47
2023-04-14T21:03:19.404Z,6.73
2023-04-14T21:05:48.491Z,9.10
2023-04-14T21:08:17.763Z,11.30
2023-04-14T21:11:14.774Z,9.80
2023-04-14T21:15:28.892Z,10.90
2023-04-14T21:16:26.175Z,9.57
2023-04-14T21:18:57.409Z,11.65
2023-04-14T21:21:27.011Z,11.50
2023-04-14T21:23:55.931Z,11.88
2023-04-14T21:26:28.433Z,11.68
2023-04-14T21:29:02.371Z,9.45
2023-04-14T21:31:32.286Z,10.25
2023-04-14T21:34:04.825Z,10.80
2023-04-14T21:36:34.994Z,7.68
2023-04-14T21:39:04.630Z,6.18
2023-04-14T21:44:05.333Z,6.70
2023-04-14T21:46:36.839Z,7.97
2023-04-14T21:49:08.367Z,7.43
2023-04-14T21:51:38.004Z,6.68
2023-04-14T21:54:37.055Z,5.22
2023-04-14T21:57:15.684Z,11.98
2023-04-14T22:00:23.554Z,5.32
2023-04-14T22:02:59.417Z,7.45
2023-04-14T22:05:34.508Z,8.20
2023-04-14T22:08:07.170Z,9.73
2023-04-14T22:10:37.135Z,7.65
2023-04-14T22:13:11.195Z,8.30
2023-04-14T22:15:47.845Z,6.20
2023-04-14T22:18:24.111Z,6.90
2023-04-14T22:21:03.595Z,6.80
2023-04-14T22:23:36.581Z,7.30
2023-04-14T22:26:12.295Z,7.47
2023-04-14T22:28:45.838Z,8.00
2023-04-14T22:31:20.996Z,6.15
2023-04-14T22:33:56.955Z,5.25
2023-04-14T22:36:36.362Z,5.97
2023-04-14T22:39:07.894Z,5.18
2023-04-14T22:41:37.163Z,4.18
2023-04-14T22:44:06.951Z,4.47
2023-04-14T22:46:36.150Z,4.28
2023-04-14T22:49:05.518Z,4.43
2023-04-14T22:51:36.030Z,5.50
2023-04-14T22:54:07.998Z,3.47
2023-04-14T22:56:41.230Z,4.20
2023-04-14T22:59:10.399Z,4.88
2023-04-14T23:01:39.466Z,4.45
2023-04-14T23:04:11.678Z,4.47
2023-04-14T23:06:42.519Z,5.35
2023-04-14T23:09:22.353Z,4.13
2023-04-14T23:14:26.143Z,4.93
2023-04-14T23:16:56.278Z,6.45
2023-04-14T23:19:31.976Z,4.43
2023-04-14T23:22:08.152Z,5.47
2023-04-14T23:24:37.778Z,4.22
2023-04-14T23:27:09.099Z,4.90
2023-04-14T23:29:41.827Z,4.28
2023-04-14T23:32:11.949Z,4.60
2023-04-14T23:34:41.951Z,3.63
2023-04-14T23:37:13.552Z,4.00
2023-04-14T23:39:43.771Z,4.32
2023-04-14T23:42:15.024Z,4.40
2023-04-14T23:44:47.920Z,4.15
2023-04-14T23:47:18.629Z,4.95
2023-04-14T23:49:58.923Z,5.32
2023-04-14T23:52:30.406Z,4.90
2023-04-14T23:55:02.811Z,5.47
2023-04-14T23:57:38.094Z,5.80
